Time,TemperatureF,DewpointF,PressureIn,WindDirection,WindDirectionDegrees,WindSpeedMPH,WindSpeedGustMPH,Humidity,HourlyPrecipIn,Conditions,Clouds,dailyrainin,SoftwareType,DateUTC
2013-05-03 00:00:00,38.8,35.6,30.25,NNW,331,3.0,3.0,88,0.00,,,0.00,Wunderground v.1.15,2013-05-03 04:00:00,
2013-05-03 00:05:00,38.7,35.2,30.25,WNW,303,3.0,5.0,87,0.00,,,0.00,Wunderground v.1.15,2013-05-03 04:05:00,
2013-05-03 00:10:00,38.7,35.2,30.24,NW,321,4.0,4.0,87,0.00,,,0.00,Wunderground v.1.15,2013-05-03 04:10:00,
2013-05-03 00:15:00,38.7,35.5,30.25,WNW,286,3.0,4.0,88,0.00,,,0.00,Wunderground v.1.15,2013-05-03 04:15:00,
2013-05-03 00:20:00,38.7,35.5,30.25,WNW,302,2.0,2.0,88,0.00,,,0.00,Wunderground v.1.15,2013-05-03 04:20:00,
2013-05-03 00:25:00,38.8,35.3,30.25,NW,320,2.0,2.0,87,0.00,,,0.00,Wunderground v.1.15,2013-05-03 04:25:00,
2013-05-03 00:35:00,38.6,35.1,30.23,ENE,57,3.0,5.0,87,0.00,,,0.00,Wunderground v.1.15,2013-05-03 04:35:00,
2013-05-03 00:40:00,38.5,35.0,30.23,NNE,29,4.0,4.0,87,0.00,,,0.00,Wunderground v.1.15,2013-05-03 04:40:00,
2013-05-03 00:45:00,38.5,35.0,30.24,NNW,339,3.0,4.0,87,0.00,,,0.00,Wunderground v.1.15,2013-05-03 04:45:00,
2013-05-03 00:50:00,38.7,35.5,30.24,NW,324,2.0,4.0,88,0.00,,,0.00,Wunderground v.1.15,2013-05-03 04:50:00,
2013-05-03 00:55:00,38.7,35.2,30.24,SE,145,3.0,4.0,87,0.00,,,0.00,Wunderground v.1.15,2013-05-03 04:55:00,
2013-05-03 01:05:00,38.9,35.4,30.24,NW,307,1.0,2.0,87,0.00,,,0.00,Wunderground v.1.15,2013-05-03 05:05:00,
2013-05-03 01:10:00,38.9,35.4,30.25,NNW,336,0.0,2.0,87,0.00,,,0.00,Wunderground v.1.15,2013-05-03 05:10:00,
2013-05-03 01:15:00,39.0,35.5,30.24,WNW,300,0.0,2.0,87,0.00,,,0.00,Wunderground v.1.15,2013-05-03 05:15:00,
2013-05-03 01:20:00,39.1,35.6,30.25,NNW,340,0.0,2.0,87,0.00,,,0.00,Wunderground v.1.15,2013-05-03 05:20:00,
2013-05-03 01:25:00,39.1,35.6,30.24,NNW,339,0.0,2.0,87,0.00,,,0.00,Wunderground v.1.15,2013-05-03 05:25:00,
2013-05-03 01:30:00,39.1,35.6,30.24,North,360,0.0,2.0,87,0.00,,,0.00,Wunderground v.1.15,2013-05-03 05:30:00,
2013-05-03 01:40:00,39.0,35.2,30.22,NE,55,1.0,3.0,86,0.00,,,0.00,Wunderground v.1.15,2013-05-03 05:40:00,
2013-05-03 01:45:00,39.0,35.5,30.23,ESE,109,1.0,3.0,87,0.00,,,0.00,Wunderground v.1.15,2013-05-03 05:45:00,
2013-05-03 01:50:00,39.0,35.5,30.23,ESE,109,0.0,2.0,87,0.00,,,0.00,Wunderground v.1.15,2013-05-03 05:50:00,
2013-05-03 01:55:00,39.1,35.6,30.23,NW,310,0.0,2.0,87,0.00,,,0.00,Wunderground v.1.15,2013-05-03 05:55:00,
2013-05-03 02:00:00,39.1,35.3,30.23,West,279,0.0,2.0,86,0.00,,,0.00,Wunderground v.1.15,2013-05-03 06:00:00,
2013-05-03 02:10:00,39.1,35.6,30.23,NW,311,0.0,2.0,87,0.00,,,0.00,Wunderground v.1.15,2013-05-03 06:10:00,
2013-05-03 02:15:00,39.1,35.6,30.22,NNW,338,1.0,2.0,87,0.00,,,0.00,Wunderground v.1.15,2013-05-03 06:15:00,
2013-05-03 02:20:00,39.1,35.3,30.22,NNW,336,1.0,2.0,86,0.00,,,0.00,Wunderground v.1.15,2013-05-03 06:20:00,
2013-05-03 02:25:00,39.1,35.6,30.22,NNW,336,0.0,2.0,87,0.00,,,0.00,Wunderground v.1.15,2013-05-03 06:25:00,
2013-05-03 02:30:00,39.2,35.4,30.22,NW,310,0.0,2.0,86,0.00,,,0.00,Wunderground v.1.15,2013-05-03 06:30:00,
2013-05-03 02:35:00,39.2,35.4,30.22,NW,310,0.0,2.0,86,0.00,,,0.00,Wunderground v.1.15,2013-05-03 06:35:00,
2013-05-03 02:45:00,39.3,35.8,30.21,NW,310,0.0,2.0,87,0.00,,,0.00,Wunderground v.1.15,2013-05-03 06:45:00,
2013-05-03 02:50:00,39.4,35.9,30.21,NW,310,0.0,2.0,87,0.00,,,0.00,Wunderground v.1.15,2013-05-03 06:50:00,
2013-05-03 02:55:00,39.4,35.9,30.21,NW,310,0.0,2.0,87,0.00,,,0.00,Wunderground v.1.15,2013-05-03 06:55:00,
2013-05-03 03:00:00,39.3,35.5,30.21,NW,313,0.0,2.0,86,0.00,,,0.00,Wunderground v.1.15,2013-05-03 07:00:00,
2013-05-03 03:05:00,39.3,35.5,30.21,NW,325,0.0,2.0,86,0.00,,,0.00,Wunderground v.1.15,2013-05-03 07:05:00,
2013-05-03 03:15:00,39.5,36.0,30.20,WNW,296,0.0,2.0,87,0.00,,,0.00,Wunderground v.1.15,2013-05-03 07:15:00,
2013-05-03 03:20:00,39.5,36.0,30.20,WNW,296,0.0,2.0,87,0.00,,,0.00,Wunderground v.1.15,2013-05-03 07:20:00,
2013-05-03 03:25:00,39.4,35.9,30.20,WNW,296,0.0,2.0,87,0.00,,,0.00,Wunderground v.1.15,2013-05-03 07:25:00,
2013-05-03 03:30:00,39.2,35.4,30.20,NNW,339,0.0,2.0,86,0.00,,,0.00,Wunderground v.1.15,2013-05-03 07:30:00,
2013-05-03 03:35:00,39.1,35.3,30.20,NNW,345,0.0,2.0,86,0.00,,,0.00,Wunderground v.1.15,2013-05-03 07:35:00,
2013-05-03 03:40:00,39.0,35.2,30.20,NNW,345,0.0,2.0,86,0.00,,,0.00,Wunderground v.1.15,2013-05-03 07:40:00,
2013-05-03 03:50:00,38.8,35.3,30.20,NNW,345,0.0,2.0,87,0.00,,,0.00,Wunderground v.1.15,2013-05-03 07:50:00,
2013-05-03 03:55:00,38.7,35.2,30.20,NW,315,0.0,2.0,87,0.00,,,0.00,Wunderground v.1.15,2013-05-03 07:55:00,
2013-05-03 04:00:00,38.8,35.3,30.20,NW,315,0.0,2.0,87,0.00,,,0.00,Wunderground v.1.15,2013-05-03 08:00:00,
2013-05-03 04:05:00,38.8,35.3,30.20,NW,315,0.0,2.0,87,0.00,,,0.00,Wunderground v.1.15,2013-05-03 08:05:00,
2013-05-03 04:10:00,38.8,35.6,30.20,NW,316,0.0,2.0,88,0.00,,,0.00,Wunderground v.1.15,2013-05-03 08:10:00,
2013-05-03 04:20:00,38.9,35.4,30.20,NW,317,0.0,2.0,87,0.00,,,0.00,Wunderground v.1.15,2013-05-03 08:20:00,
2013-05-03 04:25:00,38.8,35.3,30.19,NNW,337,0.0,5.0,87,0.00,,,0.00,Wunderground v.1.15,2013-05-03 08:25:00,
2013-05-03 04:30:00,38.7,35.2,30.19,NNW,340,1.0,1.0,87,0.00,,,0.00,Wunderground v.1.15,2013-05-03 08:30:00,
2013-05-03 04:35:00,38.7,35.2,30.19,NNW,340,1.0,2.0,87,0.00,,,0.00,Wunderground v.1.15,2013-05-03 08:35:00,
2013-05-03 04:40:00,38.6,35.1,30.20,NNW,340,0.0,2.0,87,0.00,,,0.00,Wunderground v.1.15,2013-05-03 08:40:00,
2013-05-03 04:45:00,38.5,35.0,30.20,NNW,340,0.0,2.0,87,0.00,,,0.00,Wunderground v.1.15,2013-05-03 08:45:00,
2013-05-03 04:55:00,38.4,35.2,30.20,NNW,340,0.0,2.0,88,0.00,,,0.00,Wunderground v.1.15,2013-05-03 08:55:00,
2013-05-03 05:00:00,38.3,35.1,30.20,NNW,334,0.0,4.0,88,0.00,,,0.00,Wunderground v.1.15,2013-05-03 09:00:00,
2013-05-03 05:10:00,38.2,35.0,30.20,NW,311,1.0,2.0,88,0.00,,,0.00,Wunderground v.1.15,2013-05-03 09:10:00,
2013-05-03 05:20:00,38.2,35.0,30.20,NNW,332,1.0,2.0,88,0.00,,,0.00,Wunderground v.1.15,2013-05-03 09:20:00,
2013-05-03 05:25:00,38.2,35.0,30.20,NNW,329,0.0,2.0,88,0.00,,,0.00,Wunderground v.1.15,2013-05-03 09:25:00,
2013-05-03 05:30:00,38.1,34.9,30.20,NNW,329,0.0,2.0,88,0.00,,,0.00,Wunderground v.1.15,2013-05-03 09:30:00,
2013-05-03 05:35:00,38.0,34.8,30.20,NNW,342,0.0,2.0,88,0.00,,,0.00,Wunderground v.1.15,2013-05-03 09:35:00,
2013-05-03 05:40:00,38.0,34.8,30.20,NNW,341,0.0,2.0,88,0.00,,,0.00,Wunderground v.1.15,2013-05-03 09:40:00,
2013-05-03 05:45:00,37.9,34.9,30.20,NNW,342,0.0,2.0,89,0.00,,,0.00,Wunderground v.1.15,2013-05-03 09:45:00,
2013-05-03 05:55:00,37.8,34.8,30.20,NNW,333,0.0,2.0,89,0.00,,,0.00,Wunderground v.1.15,2013-05-03 09:55:00,
2013-05-03 06:00:00,37.8,34.8,30.20,NNW,333,0.0,2.0,89,0.00,,,0.00,Wunderground v.1.15,2013-05-03 10:00:00,
2013-05-03 06:05:00,37.8,34.8,30.20,NNW,333,0.0,2.0,89,0.00,,,0.00,Wunderground v.1.15,2013-05-03 10:05:00,
2013-05-03 06:10:00,37.8,34.8,30.20,NNW,333,0.0,2.0,89,0.00,,,0.00,Wunderground v.1.15,2013-05-03 10:10:00,
2013-05-03 06:15:00,37.9,35.2,30.20,NNW,333,0.0,2.0,90,0.00,,,0.00,Wunderground v.1.15,2013-05-03 10:15:00,
2013-05-03 06:25:00,37.9,35.2,30.20,NNW,333,0.0,2.0,90,0.00,,,0.00,Wunderground v.1.15,2013-05-03 10:25:00,
2013-05-03 06:30:00,37.9,35.2,30.20,NNW,333,0.0,2.0,90,0.00,,,0.00,Wunderground v.1.15,2013-05-03 10:30:00,
2013-05-03 06:35:00,37.8,35.1,30.20,NNW,333,0.0,2.0,90,0.00,,,0.00,Wunderground v.1.15,2013-05-03 10:35:00,
2013-05-03 06:40:00,37.8,35.1,30.20,NNW,333,0.0,2.0,90,0.00,,,0.00,Wunderground v.1.15,2013-05-03 10:40:00,
2013-05-03 06:45:00,37.7,35.0,30.19,NNW,333,0.0,2.0,90,0.00,,,0.00,Wunderground v.1.15,2013-05-03 10:45:00,
2013-05-03 06:50:00,37.7,35.3,30.20,NNW,333,0.0,2.0,91,0.00,,,0.00,Wunderground v.1.15,2013-05-03 10:50:00,
2013-05-03 07:00:00,37.6,35.2,30.20,NNW,333,0.0,2.0,91,0.00,,,0.00,Wunderground v.1.15,2013-05-03 11:00:00,
2013-05-03 07:05:00,37.6,35.2,30.19,NNW,333,0.0,2.0,91,0.00,,,0.00,Wunderground v.1.15,2013-05-03 11:05:00,
2013-05-03 07:10:00,37.6,35.2,30.19,NNW,333,0.0,2.0,91,0.00,,,0.00,Wunderground v.1.15,2013-05-03 11:10:00,
2013-05-03 07:15:00,37.7,35.3,30.19,NNW,333,0.0,2.0,91,0.00,,,0.00,Wunderground v.1.15,2013-05-03 11:15:00,
2013-05-03 07:20:00,37.9,35.5,30.19,NW,319,0.0,2.0,91,0.00,,,0.00,Wunderground v.1.15,2013-05-03 11:20:00,
2013-05-03 07:30:00,38.2,35.8,30.20,NNW,329,0.0,2.0,91,0.00,,,0.00,Wunderground v.1.15,2013-05-03 11:30:00,
2013-05-03 07:35:00,38.3,35.6,30.20,NNW,329,0.0,2.0,90,0.00,,,0.00,Wunderground v.1.15,2013-05-03 11:35:00,
2013-05-03 07:40:00,38.5,35.8,30.20,NNW,329,0.0,2.0,90,0.00,,,0.00,Wunderground v.1.15,2013-05-03 11:40:00,
2013-05-03 07:45:00,38.7,36.0,30.20,NNW,329,0.0,2.0,90,0.00,,,0.00,Wunderground v.1.15,2013-05-03 11:45:00,
2013-05-03 07:50:00,39.0,36.3,30.20,NNW,327,0.0,2.0,90,0.00,,,0.00,Wunderground v.1.15,2013-05-03 11:50:00,
2013-05-03 07:55:00,39.2,36.2,30.20,NNW,328,0.0,2.0,89,0.00,,,0.00,Wunderground v.1.15,2013-05-03 11:55:00,
2013-05-03 08:05:00,39.6,36.6,30.19,NNE,33,0.0,2.0,89,0.00,,,0.00,Wunderground v.1.15,2013-05-03 12:05:00,
2013-05-03 08:10:00,39.8,36.8,30.19,NNW,331,0.0,2.0,89,0.00,,,0.00,Wunderground v.1.15,2013-05-03 12:10:00,
2013-05-03 08:15:00,40.0,36.7,30.19,NNW,331,1.0,2.0,88,0.00,,,0.00,Wunderground v.1.15,2013-05-03 12:15:00,
2013-05-03 08:20:00,40.2,36.9,30.20,NNW,332,0.0,2.0,88,0.00,,,0.00,Wunderground v.1.15,2013-05-03 12:20:00,
2013-05-03 08:25:00,40.4,36.8,30.20,ENE,69,0.0,2.0,87,0.00,,,0.00,Wunderground v.1.15,2013-05-03 12:25:00,
2013-05-03 08:35:00,40.8,37.2,30.19,ENE,67,0.0,2.0,87,0.00,,,0.00,Wunderground v.1.15,2013-05-03 12:35:00,
2013-05-03 08:40:00,41.0,37.4,30.19,North,355,0.0,2.0,87,0.00,,,0.00,Wunderground v.1.15,2013-05-03 12:40:00,
2013-05-03 08:45:00,41.2,37.6,30.19,North,355,0.0,2.0,87,0.00,,,0.00,Wunderground v.1.15,2013-05-03 12:45:00,
2013-05-03 08:50:00,41.4,37.5,30.19,North,355,0.0,2.0,86,0.00,,,0.00,Wunderground v.1.15,2013-05-03 12:50:00,
2013-05-03 08:55:00,41.5,37.6,30.19,NNW,337,0.0,2.0,86,0.00,,,0.00,Wunderground v.1.15,2013-05-03 12:55:00,
2013-05-03 09:00:00,41.7,37.8,30.18,NNW,338,1.0,2.0,86,0.00,,,0.00,Wunderground v.1.15,2013-05-03 13:00:00,
2013-05-03 09:10:00,42.2,38.0,30.19,NE,48,0.0,2.0,85,0.00,,,0.00,Wunderground v.1.15,2013-05-03 13:10:00,
2013-05-03 09:15:00,42.4,38.2,30.18,NNE,16,0.0,2.0,85,0.00,,,0.00,Wunderground v.1.15,2013-05-03 13:15:00,
2013-05-03 09:20:00,42.8,38.3,30.18,NW,321,0.0,2.0,84,0.00,,,0.00,Wunderground v.1.15,2013-05-03 13:20:00,
2013-05-03 09:25:00,43.1,38.6,30.18,ESE,122,0.0,2.0,84,0.00,,,0.00,Wunderground v.1.15,2013-05-03 13:25:00,
2013-05-03 09:30:00,43.7,39.2,30.17,NNW,330,0.0,2.0,84,0.00,,,0.00,Wunderground v.1.15,2013-05-03 13:30:00,
2013-05-03 09:40:00,44.6,39.4,30.18,WSW,257,0.0,2.0,82,0.00,,,0.00,Wunderground v.1.15,2013-05-03 13:40:00,
2013-05-03 09:45:00,44.5,40.3,30.18,WSW,249,1.0,2.0,85,0.00,,,0.00,Wunderground v.1.15,2013-05-03 13:45:00,
2013-05-03 09:50:00,43.8,39.9,30.17,WSW,255,1.0,2.0,86,0.00,,,0.00,Wunderground v.1.15,2013-05-03 13:50:00,
2013-05-03 09:55:00,42.9,39.3,30.17,West,263,2.0,2.0,87,0.00,,,0.00,Wunderground v.1.15,2013-05-03 13:55:00,
2013-05-03 10:00:00,42.3,39.0,30.17,West,264,2.0,2.0,88,0.00,,,0.00,Wunderground v.1.15,2013-05-03 14:00:00,
2013-05-03 10:05:00,41.8,38.8,30.17,West,264,3.0,4.0,89,0.00,,,0.00,Wunderground v.1.15,2013-05-03 14:05:00,
2013-05-03 10:15:00,41.1,38.4,30.17,West,279,5.0,5.0,90,0.00,,,0.00,Wunderground v.1.15,2013-05-03 14:15:00,
2013-05-03 10:20:00,41.0,38.6,30.17,West,272,5.0,6.0,91,0.00,,,0.00,Wunderground v.1.15,2013-05-03 14:20:00,
2013-05-03 10:30:00,41.0,38.6,30.17,West,268,5.0,5.0,91,0.00,,,0.00,Wunderground v.1.15,2013-05-03 14:30:00,
2013-05-03 10:35:00,41.3,39.2,30.17,West,273,5.0,5.0,92,0.00,,,0.00,Wunderground v.1.15,2013-05-03 14:35:00,
2013-05-03 10:45:00,41.5,39.1,30.17,West,271,5.0,6.0,91,0.00,,,0.00,Wunderground v.1.15,2013-05-03 14:45:00,
2013-05-03 10:50:00,41.5,39.1,30.17,West,260,5.0,6.0,91,0.00,,,0.00,Wunderground v.1.15,2013-05-03 14:50:00,
2013-05-03 10:55:00,41.3,38.9,30.17,West,264,6.0,6.0,91,0.00,,,0.00,Wunderground v.1.15,2013-05-03 14:55:00,
2013-05-03 11:00:00,41.1,38.7,30.16,West,269,6.0,6.0,91,0.00,,,0.00,Wunderground v.1.15,2013-05-03 15:00:00,
2013-05-03 11:10:00,41.4,39.0,30.16,West,263,5.0,5.0,91,0.00,,,0.00,Wunderground v.1.15,2013-05-03 15:10:00,
2013-05-03 11:20:00,41.3,38.9,30.17,West,263,5.0,5.0,91,0.00,,,0.00,Wunderground v.1.15,2013-05-03 15:20:00,
2013-05-03 11:25:00,41.4,39.0,30.16,West,268,5.0,5.0,91,0.00,,,0.00,Wunderground v.1.15,2013-05-03 15:25:00,
2013-05-03 11:30:00,41.5,39.1,30.17,West,267,4.0,4.0,91,0.00,,,0.00,Wunderground v.1.15,2013-05-03 15:30:00,
2013-05-03 11:40:00,41.5,39.1,30.16,West,277,4.0,5.0,91,0.00,,,0.00,Wunderground v.1.15,2013-05-03 15:40:00,
2013-05-03 11:45:00,41.9,39.7,30.16,West,265,4.0,5.0,92,0.00,,,0.00,Wunderground v.1.15,2013-05-03 15:45:00,
2013-05-03 11:50:00,42.2,40.0,30.15,West,267,3.0,3.0,92,0.00,,,0.00,Wunderground v.1.15,2013-05-03 15:50:00,
2013-05-03 11:55:00,42.4,40.0,30.15,West,261,3.0,3.0,91,0.00,,,0.00,Wunderground v.1.15,2013-05-03 15:55:00,
2013-05-03 12:00:00,42.7,40.5,30.15,WSW,257,2.0,2.0,92,0.00,,,0.00,Wunderground v.1.15,2013-05-03 16:00:00,
2013-05-03 12:10:00,43.7,41.5,30.14,WSW,258,3.0,3.0,92,0.00,,,0.00,Wunderground v.1.15,2013-05-03 16:10:00,
2013-05-03 12:20:00,44.0,41.3,30.14,WSW,254,3.0,3.0,90,0.00,,,0.00,Wunderground v.1.15,2013-05-03 16:20:00,
2013-05-03 12:25:00,44.3,41.6,30.14,West,264,2.0,3.0,90,0.00,,,0.00,Wunderground v.1.15,2013-05-03 16:25:00,
2013-05-03 12:30:00,44.7,41.7,30.14,West,259,2.0,3.0,89,0.00,,,0.00,Wunderground v.1.15,2013-05-03 16:30:00,
2013-05-03 12:40:00,45.8,42.4,30.14,WSW,258,3.0,3.0,88,0.00,,,0.00,Wunderground v.1.15,2013-05-03 16:40:00,
2013-05-03 12:45:00,45.9,42.2,30.14,West,274,3.0,3.0,87,0.00,,,0.00,Wunderground v.1.15,2013-05-03 16:45:00,
2013-05-03 12:50:00,45.3,41.4,30.14,West,269,3.0,3.0,86,0.00,,,0.00,Wunderground v.1.15,2013-05-03 16:50:00,
2013-05-03 12:55:00,44.9,41.3,30.14,West,269,3.0,3.0,87,0.00,,,0.00,Wunderground v.1.15,2013-05-03 16:55:00,
2013-05-03 13:00:00,44.9,41.6,30.13,West,261,2.0,2.0,88,0.00,,,0.00,Wunderground v.1.15,2013-05-03 17:00:00,
2013-05-03 13:05:00,45.0,42.0,30.13,West,275,2.0,2.0,89,0.00,,,0.00,Wunderground v.1.15,2013-05-03 17:05:00,
2013-05-03 13:15:00,44.9,41.3,30.13,West,260,3.0,4.0,87,0.00,,,0.00,Wunderground v.1.15,2013-05-03 17:15:00,
2013-05-03 13:20:00,44.6,41.6,30.13,WSW,249,3.0,3.0,89,0.00,,,0.00,Wunderground v.1.15,2013-05-03 17:20:00,
2013-05-03 13:25:00,45.2,42.2,30.12,West,278,2.0,3.0,89,0.00,,,0.00,Wunderground v.1.15,2013-05-03 17:25:00,
2013-05-03 13:30:00,45.8,42.4,30.12,West,265,2.0,3.0,88,0.00,,,0.00,Wunderground v.1.15,2013-05-03 17:30:00,
2013-05-03 13:35:00,46.0,42.6,30.12,West,263,2.0,3.0,88,0.00,,,0.00,Wunderground v.1.15,2013-05-03 17:35:00,
2013-05-03 13:40:00,46.7,43.3,30.11,West,259,2.0,2.0,88,0.00,,,0.00,Wunderground v.1.15,2013-05-03 17:40:00,
2013-05-03 13:50:00,46.4,42.7,30.12,West,266,3.0,5.0,87,0.00,,,0.00,Wunderground v.1.15,2013-05-03 17:50:00,
2013-05-03 13:55:00,46.2,42.8,30.11,West,271,3.0,5.0,88,0.00,,,0.00,Wunderground v.1.15,2013-05-03 17:55:00,
2013-05-03 14:00:00,46.5,43.1,30.11,West,270,3.0,3.0,88,0.00,,,0.00,Wunderground v.1.15,2013-05-03 18:00:00,
2013-05-03 14:05:00,46.7,43.0,30.11,West,270,2.0,3.0,87,0.00,,,0.00,Wunderground v.1.15,2013-05-03 18:05:00,
2013-05-03 14:10:00,46.9,43.2,30.10,West,269,1.0,2.0,87,0.00,,,0.00,Wunderground v.1.15,2013-05-03 18:10:00,
2013-05-03 14:20:00,47.6,44.2,30.10,West,270,1.0,2.0,88,0.00,,,0.00,Wunderground v.1.15,2013-05-03 18:20:00,
2013-05-03 14:25:00,48.0,44.3,30.09,West,270,0.0,2.0,87,0.00,,,0.00,Wunderground v.1.15,2013-05-03 18:25:00,
2013-05-03 14:30:00,48.6,45.2,30.10,NW,326,1.0,3.0,88,0.00,,,0.00,Wunderground v.1.15,2013-05-03 18:30:00,
2013-05-03 14:35:00,49.6,45.6,30.09,NW,319,1.0,3.0,86,0.00,,,0.00,Wunderground v.1.15,2013-05-03 18:35:00,
2013-05-03 14:40:00,50.1,45.5,30.10,SW,234,1.0,1.0,84,0.00,,,0.00,Wunderground v.1.15,2013-05-03 18:40:00,
2013-05-03 14:45:00,49.0,44.4,30.10,WSW,237,2.0,4.0,84,0.00,,,0.00,Wunderground v.1.15,2013-05-03 18:45:00,
2013-05-03 14:55:00,46.0,41.7,30.10,WSW,242,4.0,4.0,85,0.00,,,0.00,Wunderground v.1.15,2013-05-03 18:55:00,
2013-05-03 15:00:00,45.3,41.1,30.10,SW,234,4.0,4.0,85,0.00,,,0.00,Wunderground v.1.15,2013-05-03 19:00:00,
2013-05-03 15:05:00,44.9,41.3,30.10,West,259,4.0,5.0,87,0.00,,,0.00,Wunderground v.1.15,2013-05-03 19:05:00,
2013-05-03 15:10:00,44.5,41.2,30.10,WSW,249,5.0,5.0,88,0.00,,,0.00,Wunderground v.1.15,2013-05-03 19:10:00,
2013-05-03 15:15:00,45.2,42.2,30.10,WSW,252,5.0,7.0,89,0.00,,,0.00,Wunderground v.1.15,2013-05-03 19:15:00,
2013-05-03 15:25:00,45.3,42.0,30.10,WNW,286,5.0,5.0,88,0.00,,,0.00,Wunderground v.1.15,2013-05-03 19:25:00,
2013-05-03 15:30:00,45.8,42.2,30.09,West,281,4.0,4.0,87,0.00,,,0.00,Wunderground v.1.15,2013-05-03 19:30:00,
2013-05-03 15:35:00,45.9,42.5,30.09,West,268,3.0,4.0,88,0.00,,,0.00,Wunderground v.1.15,2013-05-03 19:35:00,
2013-05-03 15:40:00,46.5,43.1,30.09,WNW,283,3.0,5.0,88,0.00,,,0.00,Wunderground v.1.15,2013-05-03 19:40:00,
2013-05-03 15:45:00,46.5,43.1,30.08,WNW,294,4.0,5.0,88,0.00,,,0.00,Wunderground v.1.15,2013-05-03 19:45:00,
2013-05-03 15:50:00,47.0,43.6,30.08,WNW,296,4.0,4.0,88,0.00,,,0.00,Wunderground v.1.15,2013-05-03 19:50:00,
2013-05-03 16:00:00,49.1,45.1,30.08,WNW,297,1.0,2.0,86,0.00,,,0.00,Wunderground v.1.15,2013-05-03 20:00:00,
2013-05-03 16:05:00,49.3,44.7,30.07,WNW,295,2.0,3.0,84,0.00,,,0.00,Wunderground v.1.15,2013-05-03 20:05:00,
2013-05-03 16:10:00,49.5,45.2,30.07,WNW,299,2.0,2.0,85,0.00,,,0.00,Wunderground v.1.15,2013-05-03 20:10:00,
2013-05-03 16:15:00,49.7,44.7,30.07,West,271,2.0,2.0,83,0.00,,,0.00,Wunderground v.1.15,2013-05-03 20:15:00,
2013-05-03 16:20:00,49.6,44.6,30.07,WNW,284,1.0,2.0,83,0.00,,,0.00,Wunderground v.1.15,2013-05-03 20:20:00,
2013-05-03 16:30:00,49.5,44.9,30.07,SSW,195,0.0,2.0,84,0.00,,,0.00,Wunderground v.1.15,2013-05-03 20:30:00,
2013-05-03 16:35:00,50.3,45.6,30.07,South,186,0.0,2.0,84,0.00,,,0.00,Wunderground v.1.15,2013-05-03 20:35:00,
2013-05-03 16:40:00,50.7,46.0,30.06,South,186,1.0,1.0,84,0.00,,,0.00,Wunderground v.1.15,2013-05-03 20:40:00,
2013-05-03 16:45:00,51.0,46.0,30.06,South,186,0.0,2.0,83,0.00,,,0.00,Wunderground v.1.15,2013-05-03 20:45:00,
2013-05-03 16:50:00,50.5,45.2,30.06,SW,234,0.0,2.0,82,0.00,,,0.00,Wunderground v.1.15,2013-05-03 20:50:00,
2013-05-03 16:55:00,49.7,44.4,30.06,SW,234,0.0,2.0,82,0.00,,,0.00,Wunderground v.1.15,2013-05-03 20:55:00,
2013-05-03 17:05:00,48.4,43.8,30.06,SW,234,0.0,2.0,84,0.00,,,0.00,Wunderground v.1.15,2013-05-03 21:05:00,
2013-05-03 17:10:00,48.4,44.1,30.06,SW,234,0.0,2.0,85,0.00,,,0.00,Wunderground v.1.15,2013-05-03 21:10:00,
2013-05-03 17:15:00,48.7,44.4,30.06,SW,234,0.0,2.0,85,0.00,,,0.00,Wunderground v.1.15,2013-05-03 21:15:00,
2013-05-03 17:20:00,48.1,43.8,30.06,SW,225,0.0,2.0,85,0.00,,,0.00,Wunderground v.1.15,2013-05-03 21:20:00,
2013-05-03 17:25:00,47.8,43.5,30.06,SW,225,0.0,2.0,85,0.00,,,0.00,Wunderground v.1.15,2013-05-03 21:25:00,
2013-05-03 17:35:00,46.6,42.6,30.06,SSW,205,1.0,2.0,86,0.00,,,0.00,Wunderground v.1.15,2013-05-03 21:35:00,
2013-05-03 17:40:00,46.1,42.4,30.06,SSW,205,1.0,1.0,87,0.00,,,0.00,Wunderground v.1.15,2013-05-03 21:40:00,
2013-05-03 17:45:00,45.8,42.2,30.07,SSW,205,0.0,2.0,87,0.00,,,0.00,Wunderground v.1.15,2013-05-03 21:45:00,
2013-05-03 17:50:00,45.5,42.2,30.07,SSW,205,0.0,2.0,88,0.00,,,0.00,Wunderground v.1.15,2013-05-03 21:50:00,
2013-05-03 17:55:00,45.1,41.8,30.07,SSW,205,0.0,2.0,88,0.00,,,0.00,Wunderground v.1.15,2013-05-03 21:55:00,
2013-05-03 18:00:00,45.0,42.0,30.06,SSW,205,0.0,2.0,89,0.00,,,0.00,Wunderground v.1.15,2013-05-03 22:00:00,
2013-05-03 18:10:00,44.8,41.8,30.07,SSW,205,0.0,2.0,89,0.00,,,0.00,Wunderground v.1.15,2013-05-03 22:10:00,
2013-05-03 18:15:00,45.0,42.2,30.07,SSW,205,0.0,2.0,90,0.00,,,0.00,Wunderground v.1.15,2013-05-03 22:15:00,
2013-05-03 18:20:00,45.2,42.2,30.07,SSW,205,0.0,2.0,89,0.00,,,0.00,Wunderground v.1.15,2013-05-03 22:20:00,
2013-05-03 18:25:00,45.7,42.3,30.06,SSW,205,0.0,2.0,88,0.00,,,0.00,Wunderground v.1.15,2013-05-03 22:25:00,
2013-05-03 18:30:00,46.0,42.6,30.07,SSW,205,0.0,2.0,88,0.00,,,0.00,Wunderground v.1.15,2013-05-03 22:30:00,
2013-05-03 18:40:00,45.9,42.2,30.07,SSW,205,0.0,2.0,87,0.00,,,0.00,Wunderground v.1.15,2013-05-03 22:40:00,
2013-05-03 18:45:00,45.9,42.5,30.06,SSW,205,0.0,2.0,88,0.00,,,0.00,Wunderground v.1.15,2013-05-03 22:45:00,
2013-05-03 18:50:00,46.3,43.2,30.06,SSW,205,0.0,2.0,89,0.00,,,0.00,Wunderground v.1.15,2013-05-03 22:50:00,
2013-05-03 18:55:00,46.5,43.1,30.07,SSW,205,0.0,2.0,88,0.00,,,0.00,Wunderground v.1.15,2013-05-03 22:55:00,
2013-05-03 19:00:00,46.3,42.9,30.07,SSW,205,0.0,2.0,88,0.00,,,0.00,Wunderground v.1.15,2013-05-03 23:00:00,
2013-05-03 19:05:00,46.6,43.5,30.06,SSW,205,0.0,2.0,89,0.00,,,0.00,Wunderground v.1.15,2013-05-03 23:05:00,
2013-05-03 19:15:00,46.5,43.1,30.06,SSW,205,0.0,2.0,88,0.00,,,0.00,Wunderground v.1.15,2013-05-03 23:15:00,
2013-05-03 19:20:00,46.5,43.4,30.06,SSW,205,0.0,2.0,89,0.00,,,0.00,Wunderground v.1.15,2013-05-03 23:20:00,
2013-05-03 19:25:00,47.1,44.0,30.06,SSW,205,0.0,2.0,89,0.00,,,0.00,Wunderground v.1.15,2013-05-03 23:25:00,
2013-05-03 19:30:00,46.8,43.1,30.06,SSW,205,0.0,2.0,87,0.00,,,0.00,Wunderground v.1.15,2013-05-03 23:30:00,
2013-05-03 19:35:00,46.1,42.4,30.06,SSW,205,0.0,2.0,87,0.00,,,0.00,Wunderground v.1.15,2013-05-03 23:35:00,
2013-05-03 19:45:00,44.6,41.0,30.07,SW,222,1.0,2.0,87,0.00,,,0.00,Wunderground v.1.15,2013-05-03 23:45:00,
2013-05-03 19:50:00,44.0,40.7,30.07,SW,222,0.0,2.0,88,0.00,,,0.00,Wunderground v.1.15,2013-05-03 23:50:00,
2013-05-03 19:55:00,43.5,40.5,30.07,SW,222,0.0,2.0,89,0.00,,,0.00,Wunderground v.1.15,2013-05-03 23:55:00,
2013-05-03 20:00:00,43.4,40.4,30.08,SW,222,0.0,2.0,89,0.00,,,0.00,Wunderground v.1.15,2013-05-04 00:00:00,
2013-05-03 20:05:00,43.4,40.7,30.07,SW,222,0.0,2.0,90,0.00,,,0.00,Wunderground v.1.15,2013-05-04 00:05:00,
2013-05-03 20:10:00,43.6,40.9,30.07,SW,222,0.0,2.0,90,0.00,,,0.00,Wunderground v.1.15,2013-05-04 00:10:00,
2013-05-03 20:20:00,44.0,41.3,30.07,SW,222,0.0,2.0,90,0.00,,,0.00,Wunderground v.1.15,2013-05-04 00:20:00,
2013-05-03 20:25:00,44.1,41.6,30.07,SW,222,0.0,2.0,91,0.00,,,0.00,Wunderground v.1.15,2013-05-04 00:25:00,
2013-05-03 20:30:00,44.1,41.6,30.08,SSW,210,0.0,2.0,91,0.00,,,0.00,Wunderground v.1.15,2013-05-04 00:30:00,
2013-05-03 20:35:00,43.9,41.4,30.08,SSW,211,1.0,2.0,91,0.00,,,0.00,Wunderground v.1.15,2013-05-04 00:35:00,
2013-05-03 20:40:00,43.6,40.9,30.08,SSW,211,0.0,2.0,90,0.00,,,0.00,Wunderground v.1.15,2013-05-04 00:40:00,
2013-05-03 20:50:00,43.0,40.3,30.08,SSW,210,0.0,2.0,90,0.00,,,0.00,Wunderground v.1.15,2013-05-04 00:50:00,
2013-05-03 20:55:00,42.7,40.0,30.08,SW,219,0.0,2.0,90,0.00,,,0.00,Wunderground v.1.15,2013-05-04 00:55:00,
2013-05-03 21:00:00,42.4,39.7,30.09,South,190,1.0,2.0,90,0.00,,,0.00,Wunderground v.1.15,2013-05-04 01:00:00,
2013-05-03 21:05:00,41.8,39.1,30.09,WSW,238,1.0,5.0,90,0.00,,,0.00,Wunderground v.1.15,2013-05-04 01:05:00,
2013-05-03 21:10:00,41.2,38.8,30.10,WSW,246,3.0,4.0,91,0.00,,,0.00,Wunderground v.1.15,2013-05-04 01:10:00,
2013-05-03 21:15:00,40.9,38.8,30.10,WSW,248,5.0,5.0,92,0.00,,,0.00,Wunderground v.1.15,2013-05-04 01:15:00,
2013-05-03 21:25:00,40.8,38.9,30.11,WSW,244,3.0,4.0,93,0.00,,,0.00,Wunderground v.1.15,2013-05-04 01:25:00,
2013-05-03 21:30:00,40.9,39.0,30.11,WSW,246,2.0,2.0,93,0.00,,,0.00,Wunderground v.1.15,2013-05-04 01:30:00,
2013-05-03 21:35:00,41.1,39.2,30.12,WSW,243,2.0,4.0,93,0.00,,,0.00,Wunderground v.1.15,2013-05-04 01:35:00,
2013-05-03 21:40:00,41.1,39.0,30.12,WSW,244,2.0,5.0,92,0.00,,,0.00,Wunderground v.1.15,2013-05-04 01:40:00,
2013-05-03 21:45:00,41.4,39.3,30.12,West,259,3.0,5.0,92,0.00,,,0.00,Wunderground v.1.15,2013-05-04 01:45:00,
2013-05-03 21:55:00,41.9,39.7,30.12,West,259,1.0,3.0,92,0.00,,,0.00,Wunderground v.1.15,2013-05-04 01:55:00,
2013-05-03 22:00:00,42.2,39.8,30.12,West,261,1.0,1.0,91,0.00,,,0.00,Wunderground v.1.15,2013-05-04 02:00:00,
2013-05-03 22:05:00,42.4,40.0,30.12,West,260,1.0,2.0,91,0.00,,,0.00,Wunderground v.1.15,2013-05-04 02:05:00,
2013-05-03 22:10:00,42.5,40.1,30.12,West,264,1.0,2.0,91,0.00,,,0.00,Wunderground v.1.15,2013-05-04 02:10:00,
2013-05-03 22:15:00,42.4,39.7,30.13,West,264,0.0,2.0,90,0.00,,,0.00,Wunderground v.1.15,2013-05-04 02:15:00,
2013-05-03 22:20:00,42.4,39.7,30.12,West,264,0.0,2.0,90,0.00,,,0.00,Wunderground v.1.15,2013-05-04 02:20:00,
2013-05-03 22:30:00,42.4,39.4,30.12,West,264,0.0,2.0,89,0.00,,,0.00,Wunderground v.1.15,2013-05-04 02:30:00,
2013-05-03 22:35:00,42.5,39.5,30.12,West,264,0.0,2.0,89,0.00,,,0.00,Wunderground v.1.15,2013-05-04 02:35:00,
2013-05-03 22:40:00,42.4,39.4,30.13,West,264,0.0,2.0,89,0.00,,,0.00,Wunderground v.1.15,2013-05-04 02:40:00,
2013-05-03 22:45:00,42.4,39.4,30.12,West,264,0.0,2.0,89,0.00,,,0.00,Wunderground v.1.15,2013-05-04 02:45:00,
2013-05-03 22:50:00,42.4,39.1,30.12,West,264,0.0,2.0,88,0.00,,,0.00,Wunderground v.1.15,2013-05-04 02:50:00,
2013-05-03 23:00:00,42.4,39.1,30.12,West,264,0.0,2.0,88,0.00,,,0.00,Wunderground v.1.15,2013-05-04 03:00:00,
2013-05-03 23:05:00,42.3,39.3,30.13,West,264,0.0,2.0,89,0.00,,,0.00,Wunderground v.1.15,2013-05-04 03:05:00,
2013-05-03 23:10:00,42.3,39.3,30.13,West,264,0.0,2.0,89,0.00,,,0.00,Wunderground v.1.15,2013-05-04 03:10:00,
2013-05-03 23:15:00,42.4,39.4,30.13,West,264,0.0,2.0,89,0.00,,,0.00,Wunderground v.1.15,2013-05-04 03:15:00,
2013-05-03 23:20:00,42.4,39.7,30.12,West,264,0.0,2.0,90,0.00,,,0.00,Wunderground v.1.15,2013-05-04 03:20:00,
2013-05-03 23:25:00,42.5,39.8,30.12,West,264,0.0,2.0,90,0.00,,,0.00,Wunderground v.1.15,2013-05-04 03:25:00,
2013-05-03 23:35:00,42.5,39.8,30.12,West,264,0.0,2.0,90,0.00,,,0.00,Wunderground v.1.15,2013-05-04 03:35:00,
2013-05-03 23:40:00,42.4,39.7,30.12,West,264,0.0,2.0,90,0.00,,,0.00,Wunderground v.1.15,2013-05-04 03:40:00,
2013-05-03 23:45:00,42.2,39.5,30.13,West,264,0.0,2.0,90,0.00,,,0.00,Wunderground v.1.15,2013-05-04 03:45:00,
2013-05-03 23:50:00,41.9,39.2,30.13,West,264,0.0,2.0,90,0.00,,,0.00,Wunderground v.1.15,2013-05-04 03:50:00,
2013-05-03 23:55:00,41.7,39.0,30.13,West,264,0.0,2.0,90,0.00,,,0.00,Wunderground v.1.15,2013-05-04 03:55:00,